Time;durP1;ratioP1;P1;durP2;ratioP2;P2;SDS_P1;SDS_P2;PMS_P1;PMS_P2;Temp;Humidity;BMP_temperature;BMP_pressure;BME280_temperature;BME280_humidity;BME280_pressure;Samples;Min_cycle;Max_cycle;Signal;HPM_P1;HPM_P2
2022/05/17 00:02:24;;;;;;;32.65;14.07;;;15.30;99.90;;;;;;4995318;28;20496;-69
2022/05/17 00:04:50;;;;;;;27.70;13.10;;;15.20;99.90;;;;;;4978775;28;20045;-70
2022/05/17 00:07:17;;;;;;;33.80;14.18;;;15.20;99.90;;;;;;4993237;28;20189;-68
2022/05/17 00:09:43;;;;;;;30.38;13.10;;;15.10;99.90;;;;;;4994934;28;20054;-68
2022/05/17 00:12:10;;;;;;;29.75;13.05;;;15.10;99.90;;;;;;4995159;28;20048;-69
2022/05/17 00:14:36;;;;;;;25.65;13.20;;;15.00;99.90;;;;;;4994493;28;20052;-68
2022/05/17 00:17:03;;;;;;;30.08;12.77;;;15.00;99.90;;;;;;4979250;28;20061;-68
2022/05/17 00:19:29;;;;;;;23.85;12.25;;;15.00;99.90;;;;;;5005487;28;20045;-69
2022/05/17 00:21:55;;;;;;;28.60;13.63;;;14.90;99.90;;;;;;4972363;28;20387;-67
2022/05/17 00:24:24;;;;;;;27.17;12.90;;;14.90;99.90;;;;;;4975928;28;20483;-67
2022/05/17 00:26:50;;;;;;;24.02;12.38;;;14.80;99.90;;;;;;4976111;28;20529;-68
2022/05/17 00:29:17;;;;;;;33.53;13.07;;;14.80;99.90;;;;;;4989987;28;20062;-68
2022/05/17 00:31:43;;;;;;;30.33;13.13;;;14.80;99.90;;;;;;4975985;28;20047;-69
2022/05/17 00:34:09;;;;;;;32.47;13.13;;;14.80;99.90;;;;;;4975408;28;20097;-68
2022/05/17 00:36:36;;;;;;;31.33;12.65;;;14.70;99.90;;;;;;4975980;28;20064;-69
2022/05/17 00:39:03;;;;;;;33.03;12.95;;;14.70;99.90;;;;;;4975093;28;20483;-68
2022/05/17 00:41:29;;;;;;;31.30;13.13;;;14.70;99.90;;;;;;4975652;28;20053;-68
2022/05/17 00:46:45;;;;;;;31.13;12.05;;;14.70;99.90;;;;;;4975001;28;20046;-70
2022/05/17 00:49:15;;;;;;;29.60;11.10;;;14.70;99.90;;;;;;4991390;28;20069;-69
2022/05/17 00:51:43;;;;;;;30.98;12.50;;;14.70;99.90;;;;;;4959456;28;20055;-68
2022/05/17 00:54:14;;;;;;;30.52;12.05;;;14.60;99.90;;;;;;4974984;28;20188;-68
2022/05/17 00:57:00;;;;;;;30.17;11.85;;;14.60;99.90;;;;;;4975237;28;20265;-68
2022/05/17 00:59:27;;;;;;;31.27;12.10;;;14.50;99.90;;;;;;4974465;28;20077;-69
2022/05/17 01:01:54;;;;;;;32.60;12.80;;;14.60;99.90;;;;;;4975317;28;20414;-69
2022/05/17 01:04:22;;;;;;;26.23;10.93;;;14.50;99.90;;;;;;4975226;28;20046;-69
2022/05/17 01:06:56;;;;;;;20.55;10.50;;;14.50;99.90;;;;;;4975290;28;20045;-69
2022/05/17 01:09:23;;;;;;;24.42;11.68;;;14.50;99.90;;;;;;4959203;28;20038;-68
2022/05/17 01:11:49;;;;;;;27.33;10.90;;;14.50;99.90;;;;;;4975482;28;20050;-68
2022/05/17 01:17:00;;;;;;;29.38;11.23;;;14.50;99.90;;;;;;4948394;28;20053;-69
2022/05/17 01:19:27;;;;;;;27.70;10.95;;;14.50;99.90;;;;;;4975006;28;20064;-68
2022/05/17 01:21:53;;;;;;;27.75;11.70;;;14.40;99.90;;;;;;4975377;28;20050;-68
2022/05/17 01:24:20;;;;;;;26.27;10.82;;;14.40;99.90;;;;;;4974585;28;20050;-68
2022/05/17 01:26:55;;;;;;;25.15;11.15;;;14.40;99.90;;;;;;4958695;28;20222;-68
2022/05/17 01:29:21;;;;;;;31.95;11.07;;;14.30;99.90;;;;;;4975483;28;20046;-70
2022/05/17 01:31:48;;;;;;;28.58;11.02;;;14.30;99.90;;;;;;4975130;28;20043;-68
2022/05/17 01:34:14;;;;;;;24.80;10.52;;;14.20;99.90;;;;;;4974249;28;20049;-68
2022/05/17 01:36:41;;;;;;;30.48;11.52;;;14.20;99.90;;;;;;4975119;28;20045;-67
2022/05/17 01:39:08;;;;;;;25.23;10.70;;;14.20;99.90;;;;;;4958800;28;20099;-68
2022/05/17 01:41:34;;;;;;;27.23;11.00;;;14.20;99.90;;;;;;4966985;28;20051;-68
2022/05/17 01:44:01;;;;;;;24.58;10.50;;;14.20;99.90;;;;;;4989880;28;20037;-67
2022/05/17 01:46:27;;;;;;;25.30;10.05;;;14.20;99.90;;;;;;4993540;28;20058;-68
2022/05/17 01:48:54;;;;;;;25.73;10.88;;;14.20;99.90;;;;;;4993945;28;20107;-68
2022/05/17 01:51:21;;;;;;;23.17;11.00;;;14.20;99.90;;;;;;4993993;28;20387;-70
2022/05/17 01:53:48;;;;;;;28.67;11.45;;;14.10;99.90;;;;;;4993422;28;20482;-68
2022/05/17 01:56:14;;;;;;;28.08;10.38;;;14.10;99.90;;;;;;4993962;28;20050;-68
2022/05/17 01:58:40;;;;;;;25.95;10.77;;;14.10;99.90;;;;;;4993764;28;20128;-68
2022/05/17 02:01:08;;;;;;;29.35;10.65;;;14.10;99.90;;;;;;5010156;28;20467;-68
2022/05/17 02:03:34;;;;;;;23.80;10.57;;;14.10;99.90;;;;;;4977399;28;20124;-68
2022/05/17 02:06:00;;;;;;;25.95;11.35;;;14.10;99.90;;;;;;4993896;28;20042;-69
2022/05/17 02:08:26;;;;;;;32.22;10.75;;;14.00;99.90;;;;;;4993860;28;20045;-67
2022/05/17 02:10:52;;;;;;;25.73;11.43;;;14.00;99.90;;;;;;4993449;28;20098;-68
2022/05/17 02:13:18;;;;;;;26.40;10.77;;;14.00;99.90;;;;;;4993579;28;20112;-69
2022/05/17 02:15:45;;;;;;;26.48;10.77;;;13.90;99.90;;;;;;4993584;28;20481;-68
2022/05/17 02:18:11;;;;;;;25.42;10.75;;;13.80;99.90;;;;;;4993874;28;20049;-68
2022/05/17 02:20:37;;;;;;;28.83;11.50;;;13.80;99.90;;;;;;4977536;28;20053;-68
2022/05/17 02:23:03;;;;;;;27.17;10.48;;;13.70;99.90;;;;;;4993477;28;20125;-68
2022/05/17 02:25:29;;;;;;;26.08;11.45;;;13.70;99.90;;;;;;4997161;28;20149;-68
2022/05/17 02:27:55;;;;;;;25.90;10.43;;;13.70;99.90;;;;;;4997384;28;20053;-68
2022/05/17 02:30:21;;;;;;;24.60;10.30;;;13.60;99.90;;;;;;4981127;28;20478;-71
2022/05/17 02:32:47;;;;;;;24.35;11.25;;;13.60;99.90;;;;;;4996766;28;20050;-68
2022/05/17 02:35:13;;;;;;;26.55;10.77;;;13.60;99.90;;;;;;4996716;28;20042;-68
2022/05/17 02:37:39;;;;;;;25.60;10.93;;;13.50;99.90;;;;;;4996835;28;20045;-68
2022/05/17 02:40:06;;;;;;;26.00;10.57;;;13.50;99.90;;;;;;4980748;28;20041;-68
2022/05/17 02:42:32;;;;;;;26.85;10.65;;;13.40;99.90;;;;;;4996610;28;20057;-67
2022/05/17 02:44:58;;;;;;;24.98;10.55;;;13.40;99.90;;;;;;4996957;28;20046;-68
2022/05/17 02:47:24;;;;;;;27.58;10.57;;;13.30;99.90;;;;;;4996817;28;20494;-68
2022/05/17 02:49:50;;;;;;;18.60;10.00;;;13.30;99.90;;;;;;4996905;28;20045;-70
2022/05/17 02:52:16;;;;;;;24.75;10.48;;;13.30;99.90;;;;;;4996403;28;20128;-68
2022/05/17 02:54:42;;;;;;;33.03;10.70;;;13.30;99.90;;;;;;4996895;28;20188;-67
2022/05/17 02:57:08;;;;;;;25.65;10.02;;;13.30;99.90;;;;;;4980364;28;20050;-69
2022/05/17 02:59:35;;;;;;;24.55;10.68;;;13.20;99.90;;;;;;4996874;28;20050;-69
2022/05/17 03:02:01;;;;;;;28.75;10.50;;;13.20;99.90;;;;;;4996205;28;20091;-68
2022/05/17 03:04:27;;;;;;;26.10;10.63;;;13.20;99.90;;;;;;4996210;28;20042;-68
2022/05/17 03:06:54;;;;;;;23.98;10.52;;;13.20;99.90;;;;;;5012719;28;20061;-68
2022/05/17 03:09:20;;;;;;;27.77;10.85;;;13.20;99.90;;;;;;4996559;28;20108;-68
2022/05/17 03:11:46;;;;;;;23.00;10.55;;;13.20;99.90;;;;;;4996581;28;20045;-68
2022/05/17 03:14:14;;;;;;;27.25;11.35;;;13.10;99.90;;;;;;4995882;28;20050;-69
2022/05/17 03:16:40;;;;;;;28.13;10.00;;;13.10;99.90;;;;;;4996151;28;20060;-69
2022/05/17 03:19:07;;;;;;;29.73;10.20;;;13.10;99.90;;;;;;4996146;28;20045;-69
2022/05/17 03:21:34;;;;;;;22.17;9.95;;;13.10;99.90;;;;;;4995749;28;20365;-68
2022/05/17 03:24:00;;;;;;;24.75;10.60;;;13.10;99.90;;;;;;4995163;28;20079;-68
2022/05/17 03:26:28;;;;;;;24.40;9.73;;;13.10;99.90;;;;;;4995419;28;20085;-68
2022/05/17 03:28:56;;;;;;;21.17;9.70;;;13.10;99.90;;;;;;4995406;28;20145;-68
2022/05/17 03:31:22;;;;;;;27.17;10.23;;;13.10;99.90;;;;;;4995194;28;20095;-68
2022/05/17 03:33:48;;;;;;;18.50;9.60;;;13.10;99.90;;;;;;4994871;28;20128;-69
2022/05/17 03:36:14;;;;;;;20.20;9.30;;;13.00;99.90;;;;;;4994288;28;20566;-68
2022/05/17 03:38:40;;;;;;;29.17;10.13;;;13.00;99.90;;;;;;4996085;28;20042;-68
2022/05/17 03:41:06;;;;;;;28.60;10.05;;;13.00;99.90;;;;;;4995810;28;20049;-67
2022/05/17 03:43:32;;;;;;;31.23;10.80;;;13.00;99.90;;;;;;4979223;28;20053;-68
2022/05/17 03:45:58;;;;;;;23.95;10.45;;;13.00;99.90;;;;;;4995375;28;20050;-68
2022/05/17 03:48:27;;;;;;;25.95;10.48;;;13.00;99.90;;;;;;4979516;28;20486;-68
2022/05/17 03:50:54;;;;;;;25.77;10.68;;;13.00;99.90;;;;;;5012192;28;20335;-70
2022/05/17 03:53:20;;;;;;;29.95;11.15;;;13.00;99.90;;;;;;5011757;28;20383;-67
2022/05/17 03:55:46;;;;;;;25.88;10.52;;;13.00;99.90;;;;;;4974161;28;20054;-68
2022/05/17 03:58:12;;;;;;;23.88;10.65;;;13.00;99.90;;;;;;4992896;28;20038;-68
2022/05/17 04:00:39;;;;;;;30.10;10.82;;;13.00;99.90;;;;;;5011836;28;20042;-69
2022/05/17 04:03:05;;;;;;;24.80;10.02;;;13.10;99.90;;;;;;4995001;28;20428;-68
2022/05/17 04:05:31;;;;;;;26.70;10.38;;;13.00;99.90;;;;;;5012075;28;20133;-68
2022/05/17 04:07:57;;;;;;;26.10;10.63;;;13.00;99.90;;;;;;4995338;28;20042;-68
2022/05/17 04:10:23;;;;;;;25.65;10.85;;;13.00;99.90;;;;;;4993781;28;20077;-68
2022/05/17 04:12:49;;;;;;;27.67;11.23;;;13.10;99.90;;;;;;4995050;28;20360;-68
2022/05/17 04:15:21;;;;;;;24.95;10.35;;;13.10;99.90;;;;;;4978946;28;20041;-69
2022/05/17 04:17:47;;;;;;;26.75;11.05;;;13.10;99.90;;;;;;4995304;28;20329;-69
2022/05/17 04:20:15;;;;;;;27.25;10.68;;;13.10;99.90;;;;;;4979050;28;20045;-68
2022/05/17 04:22:47;;;;;;;28.35;10.93;;;13.10;99.90;;;;;;4994829;28;20096;-71
2022/05/17 04:25:15;;;;;;;26.13;11.13;;;13.20;99.90;;;;;;4994923;28;20048;-69
2022/05/17 04:27:41;;;;;;;24.45;10.70;;;13.20;99.90;;;;;;4994362;28;20046;-68
2022/05/17 04:30:07;;;;;;;28.67;10.88;;;13.30;99.90;;;;;;4994742;28;20080;-69
2022/05/17 04:32:33;;;;;;;26.23;11.30;;;13.30;99.90;;;;;;4993446;28;20459;-68
2022/05/17 04:35:00;;;;;;;26.95;10.82;;;13.40;99.90;;;;;;5012359;28;20038;-69
2022/05/17 04:37:27;;;;;;;32.13;10.98;;;13.40;99.90;;;;;;5010113;28;20046;-69
2022/05/17 04:39:53;;;;;;;23.52;10.70;;;13.50;99.90;;;;;;4962413;28;20386;-68
2022/05/17 04:42:19;;;;;;;26.75;10.65;;;13.60;99.90;;;;;;4994367;28;20096;-68
2022/05/17 04:44:45;;;;;;;25.23;11.32;;;13.70;99.90;;;;;;4994656;28;20053;-68
2022/05/17 04:47:12;;;;;;;24.80;10.93;;;13.70;99.90;;;;;;5010543;28;20438;-68
2022/05/17 04:49:38;;;;;;;28.20;10.68;;;13.80;99.90;;;;;;4994940;28;20058;-68
2022/05/17 04:52:06;;;;;;;23.73;10.85;;;13.90;99.90;;;;;;4977966;28;20034;-69
2022/05/17 04:54:32;;;;;;;28.17;10.50;;;14.00;99.90;;;;;;4978166;28;20606;-69
2022/05/17 04:56:58;;;;;;;33.47;10.60;;;14.10;99.90;;;;;;4994469;28;20042;-68
2022/05/17 04:59:24;;;;;;;24.20;10.30;;;14.20;99.90;;;;;;4994660;28;20045;-70
2022/05/17 05:01:50;;;;;;;29.30;11.27;;;14.30;99.90;;;;;;4994600;28;20521;-71
2022/05/17 05:04:19;;;;;;;26.55;11.18;;;14.40;99.90;;;;;;4978106;28;20049;-69
2022/05/17 05:06:46;;;;;;;27.25;10.60;;;14.50;99.90;;;;;;4994572;28;20056;-68
2022/05/17 05:09:13;;;;;;;26.33;11.57;;;14.60;99.90;;;;;;4977817;28;20100;-70
2022/05/17 05:11:39;;;;;;;22.15;10.25;;;14.80;99.90;;;;;;4994383;28;20517;-68
2022/05/17 05:14:06;;;;;;;22.80;10.55;;;14.80;99.90;;;;;;4993956;28;20470;-68
2022/05/17 05:16:32;;;;;;;23.38;9.95;;;15.00;99.90;;;;;;4994424;28;20038;-68
2022/05/17 05:18:58;;;;;;;22.98;9.60;;;15.00;99.90;;;;;;4994514;28;20041;-69
2022/05/17 05:21:25;;;;;;;19.65;9.60;;;15.20;99.90;;;;;;4978170;28;20068;-68
2022/05/17 05:23:52;;;;;;;23.85;9.60;;;15.20;99.90;;;;;;4994085;28;20128;-71
2022/05/17 05:26:18;;;;;;;28.63;10.65;;;15.30;99.90;;;;;;4994161;28;20192;-68
2022/05/17 05:28:45;;;;;;;22.45;10.02;;;15.40;99.90;;;;;;4994440;28;20046;-70
2022/05/17 05:31:13;;;;;;;26.05;9.48;;;15.40;99.90;;;;;;4994430;28;20057;-69
2022/05/17 05:33:39;;;;;;;25.38;9.50;;;15.60;99.90;;;;;;4977598;28;20152;-69
2022/05/17 05:36:06;;;;;;;21.55;9.63;;;15.60;99.90;;;;;;4978009;28;20385;-69
2022/05/17 05:38:32;;;;;;;24.10;9.35;;;15.70;99.90;;;;;;4994113;28;20078;-71
2022/05/17 05:40:59;;;;;;;23.63;9.50;;;15.80;99.90;;;;;;4993806;28;20044;-68
2022/05/17 05:43:25;;;;;;;19.90;9.35;;;15.80;99.90;;;;;;4993852;28;20046;-68
2022/05/17 05:45:52;;;;;;;25.55;9.20;;;15.80;99.90;;;;;;5010214;28;20057;-69
2022/05/17 05:48:18;;;;;;;18.30;9.20;;;15.80;99.90;;;;;;4962535;28;20053;-68
2022/05/17 05:50:47;;;;;;;24.13;9.25;;;15.90;99.90;;;;;;4977094;28;20050;-68
2022/05/17 05:53:15;;;;;;;23.08;9.32;;;15.80;99.90;;;;;;4974209;28;20108;-68
2022/05/17 05:55:41;;;;;;;19.33;9.02;;;15.80;99.90;;;;;;4979447;28;20046;-68
2022/05/17 05:58:08;;;;;;;19.77;9.57;;;15.90;99.90;;;;;;4982537;28;20047;-68
2022/05/17 06:00:35;;;;;;;23.60;9.02;;;15.90;99.90;;;;;;4978796;28;20077;-67
2022/05/17 06:03:02;;;;;;;24.85;8.88;;;15.90;99.90;;;;;;4978067;28;20101;-69
2022/05/17 06:05:28;;;;;;;19.52;9.13;;;16.00;99.90;;;;;;4978911;28;20521;-68
2022/05/17 06:07:54;;;;;;;23.80;8.77;;;16.10;99.90;;;;;;4978515;28;20038;-68
2022/05/17 06:10:21;;;;;;;19.60;8.02;;;16.20;99.90;;;;;;4978273;28;20065;-68
2022/05/17 06:12:48;;;;;;;24.58;10.02;;;16.30;99.90;;;;;;4961974;28;20050;-68
2022/05/17 06:15:14;;;;;;;19.80;8.32;;;16.40;99.90;;;;;;4977888;28;20050;-69
2022/05/17 06:17:41;;;;;;;18.05;8.27;;;16.50;99.90;;;;;;4978555;28;20600;-69
2022/05/17 06:20:11;;;;;;;20.50;8.30;;;16.60;99.90;;;;;;4962188;28;20050;-69
2022/05/17 06:22:38;;;;;;;17.03;7.47;;;16.60;99.90;;;;;;4977746;28;20042;-69
2022/05/17 06:25:05;;;;;;;18.63;7.93;;;16.70;99.90;;;;;;4946660;28;20042;-69
2022/05/17 06:27:31;;;;;;;20.52;8.10;;;16.70;99.90;;;;;;4977864;28;20080;-68
2022/05/17 06:29:57;;;;;;;20.55;7.05;;;16.90;99.90;;;;;;4962150;28;20077;-70
2022/05/17 06:32:23;;;;;;;23.25;8.35;;;16.90;99.90;;;;;;4967513;28;20041;-70
2022/05/17 06:34:49;;;;;;;19.45;8.13;;;17.00;99.90;;;;;;4980839;28;20038;-69
2022/05/17 06:37:15;;;;;;;16.38;8.02;;;17.10;99.90;;;;;;4980981;28;20138;-69
2022/05/17 06:39:42;;;;;;;16.15;7.40;;;17.20;99.90;;;;;;5012898;28;20050;-69
2022/05/17 06:42:08;;;;;;;20.08;7.53;;;17.30;99.90;;;;;;4984566;28;20046;-69
2022/05/17 06:44:37;;;;;;;16.38;6.90;;;17.30;99.90;;;;;;4989660;28;20053;-68
2022/05/17 06:47:04;;;;;;;17.05;7.40;;;17.40;99.90;;;;;;4993982;28;20046;-69
2022/05/17 06:49:31;;;;;;;17.42;7.22;;;17.40;99.90;;;;;;4977667;28;20386;-70
2022/05/17 06:52:01;;;;;;;17.27;7.50;;;17.50;99.90;;;;;;4977310;28;20379;-70
2022/05/17 06:54:26;;;;;;;15.00;6.88;;;17.70;99.90;;;;;;4977923;28;20046;-70
2022/05/17 06:56:52;;;;;;;18.33;6.50;;;17.70;99.90;;;;;;4977995;28;20064;-69
2022/05/17 06:59:18;;;;;;;14.05;7.07;;;17.90;99.90;;;;;;4993895;28;20140;-69
2022/05/17 07:01:45;;;;;;;16.30;6.80;;;17.90;99.90;;;;;;4977460;28;20049;-69
2022/05/17 07:04:13;;;;;;;20.05;7.65;;;18.00;99.90;;;;;;4993204;28;20474;-69
2022/05/17 07:06:39;;;;;;;17.63;5.68;;;18.10;99.90;;;;;;4993721;28;20046;-68
2022/05/17 07:09:05;;;;;;;15.75;6.40;;;18.10;99.90;;;;;;4944787;28;20390;-70
2022/05/17 07:14:16;;;;;;;13.23;6.20;;;18.30;99.90;;;;;;4977032;28;20057;-69
2022/05/17 07:16:42;;;;;;;18.38;7.50;;;18.30;99.90;;;;;;4977256;28;20042;-71
2022/05/17 07:19:09;;;;;;;15.35;5.97;;;18.40;99.90;;;;;;4977035;28;20054;-69
2022/05/17 07:21:35;;;;;;;13.52;6.05;;;18.50;99.90;;;;;;4976948;28;20053;-69
2022/05/17 07:24:00;;;;;;;15.13;5.90;;;18.50;99.90;;;;;;4961006;28;20062;-69
2022/05/17 07:26:26;;;;;;;15.75;5.88;;;18.50;99.90;;;;;;4977127;28;20042;-69
2022/05/17 07:28:52;;;;;;;13.45;5.35;;;18.60;99.90;;;;;;4977128;28;20122;-70
2022/05/17 07:31:18;;;;;;;13.80;5.82;;;18.70;99.90;;;;;;4977075;28;20133;-71
2022/05/17 07:33:44;;;;;;;15.93;5.88;;;18.70;99.90;;;;;;4976520;28;20046;-70
2022/05/17 07:36:10;;;;;;;16.52;6.38;;;18.70;99.90;;;;;;4977419;28;20582;-69
2022/05/17 07:38:37;;;;;;;12.35;6.00;;;18.70;99.90;;;;;;4992943;28;20058;-70
2022/05/17 07:41:04;;;;;;;16.48;5.50;;;18.90;99.90;;;;;;4976698;28;20043;-69
2022/05/17 07:43:31;;;;;;;9.65;5.00;;;19.00;99.90;;;;;;4971131;28;20046;-71
2022/05/17 07:45:57;;;;;;;10.88;5.20;;;19.00;99.90;;;;;;4962319;28;20215;-71
2022/05/17 07:48:25;;;;;;;13.95;5.32;;;18.90;99.90;;;;;;4960503;28;20062;-70
2022/05/17 07:50:52;;;;;;;13.07;5.18;;;19.00;99.90;;;;;;4976866;28;20104;-70
2022/05/17 07:53:20;;;;;;;14.15;5.88;;;19.10;99.90;;;;;;4960127;28;20080;-71
2022/05/17 07:55:47;;;;;;;11.98;5.25;;;19.20;99.90;;;;;;4976374;28;20081;-70
2022/05/17 07:58:14;;;;;;;12.80;5.00;;;19.40;99.90;;;;;;4960263;28;20050;-70
2022/05/17 08:00:44;;;;;;;15.60;5.20;;;19.40;99.90;;;;;;4992631;28;20310;-70
2022/05/17 08:03:15;;;;;;;13.18;4.68;;;19.40;99.90;;;;;;4976086;28;20038;-71
2022/05/17 08:05:42;;;;;;;12.00;5.07;;;19.50;99.90;;;;;;4992660;28;20054;-70
2022/05/17 08:08:08;;;;;;;11.02;4.93;;;19.60;99.90;;;;;;4976284;28;20046;-70
2022/05/17 08:10:33;;;;;;;13.80;4.82;;;19.70;99.90;;;;;;4992806;28;20046;-70
2022/05/17 08:12:59;;;;;;;13.93;5.20;;;19.80;99.90;;;;;;4975847;28;20100;-70
2022/05/17 08:15:27;;;;;;;13.30;5.53;;;20.00;99.90;;;;;;4959746;28;20056;-69
2022/05/17 08:17:53;;;;;;;9.65;4.88;;;19.80;99.90;;;;;;4976200;28;20046;-71
2022/05/17 08:20:19;;;;;;;14.38;5.40;;;19.90;99.90;;;;;;4960174;28;20046;-70
2022/05/17 08:22:46;;;;;;;11.77;4.90;;;19.90;99.90;;;;;;4975159;28;20136;-70
2022/05/17 08:28:04;;;;;;;13.88;5.18;;;20.10;99.90;;;;;;4994748;28;20534;-70
2022/05/17 08:30:31;;;;;;;16.08;5.45;;;20.20;99.90;;;;;;4995261;28;20445;-71
2022/05/17 08:33:18;;;;;;;13.25;5.05;;;20.30;99.90;;;;;;4993833;28;20471;-69
2022/05/17 08:36:00;;;;;;;11.13;5.50;;;20.20;99.90;;;;;;4994130;28;20463;-69
2022/05/17 08:38:29;;;;;;;11.63;5.32;;;20.40;99.90;;;;;;4995563;28;20042;-70
2022/05/17 08:40:58;;;;;;;12.85;5.60;;;20.50;99.90;;;;;;4981798;28;20161;-70
2022/05/17 08:43:30;;;;;;;13.65;5.32;;;20.50;99.90;;;;;;5010291;28;20124;-70
2022/05/17 08:46:03;;;;;;;11.65;5.38;;;20.60;99.90;;;;;;4994635;28;20064;-69
2022/05/17 08:48:36;;;;;;;9.55;4.80;;;20.80;99.90;;;;;;4978219;28;20532;-70
2022/05/17 08:51:03;;;;;;;13.27;3.90;;;20.90;99.90;;;;;;5011741;28;20486;-70
2022/05/17 08:53:29;;;;;;;12.45;4.25;;;21.00;99.90;;;;;;4981112;28;20050;-70
2022/05/17 08:55:57;;;;;;;8.82;3.80;;;20.70;99.90;;;;;;4975264;28;20050;-71
2022/05/17 08:58:30;;;;;;;10.32;4.85;;;20.70;99.90;;;;;;4959427;28;20042;-70
2022/05/17 09:01:10;;;;;;;7.72;4.15;;;20.50;99.90;;;;;;4975300;28;20051;-70
2022/05/17 09:04:06;;;;;;;10.20;4.60;;;20.40;99.90;;;;;;4975515;28;20060;-70
2022/05/17 09:07:00;;;;;;;13.85;4.05;;;20.70;99.90;;;;;;4976684;28;20053;-70
2022/05/17 09:09:30;;;;;;;12.02;4.38;;;20.80;99.90;;;;;;4994330;28;20053;-72
2022/05/17 09:12:00;;;;;;;10.80;4.43;;;21.00;99.90;;;;;;4976399;28;20056;-70
2022/05/17 09:14:37;;;;;;;12.07;5.05;;;21.00;99.90;;;;;;4959019;28;20061;-70
2022/05/17 09:17:09;;;;;;;11.30;5.18;;;21.40;99.90;;;;;;4994285;28;20135;-72
2022/05/17 09:19:35;;;;;;;9.63;4.38;;;21.50;99.90;;;;;;5009789;28;20045;-72
2022/05/17 09:22:02;;;;;;;14.05;4.78;;;21.40;99.90;;;;;;4958278;28;20387;-71
2022/05/17 09:24:38;;;;;;;11.07;4.57;;;21.20;99.90;;;;;;4975407;28;20068;-69
2022/05/17 09:27:25;;;;;;;11.57;3.80;;;21.30;99.90;;;;;;4959007;28;20133;-70
2022/05/17 09:29:58;;;;;;;11.68;3.78;;;21.40;99.90;;;;;;4980539;28;20398;-72
2022/05/17 09:32:29;;;;;;;10.68;3.95;;;21.40;99.90;;;;;;4981197;28;20042;-70
2022/05/17 09:35:16;;;;;;;12.55;3.45;;;21.50;99.90;;;;;;4978933;28;20379;-71
2022/05/17 09:37:46;;;;;;;8.07;4.05;;;21.60;99.90;;;;;;4963232;28;20049;-69
2022/05/17 09:40:20;;;;;;;8.57;3.70;;;21.90;99.90;;;;;;4962636;28;20042;-70
2022/05/17 09:43:07;;;;;;;8.57;3.80;;;22.10;99.90;;;;;;4967677;28;20560;-70
2022/05/17 09:46:00;;;;;;;11.98;3.72;;;22.60;99.90;;;;;;4967014;28;20061;-70
2022/05/17 09:52:32;;;;;;;8.07;3.75;;;22.60;99.90;;;;;;4978970;28;20038;-70
2022/05/17 09:54:35;;;;;;;14.25;5.22;;;22.50;99.90;;;;;;4978234;28;20082;-70
2022/05/17 09:57:21;;;;;;;8.40;3.88;;;22.10;99.90;;;;;;4978563;28;20058;-71
2022/05/17 09:59:52;;;;;;;13.52;3.17;;;22.40;99.90;;;;;;4962707;28;20081;-71
2022/05/17 10:02:32;;;;;;;6.80;2.63;;;22.50;99.90;;;;;;4962515;28;20042;-72
2022/05/17 10:05:00;;;;;;;8.45;2.83;;;22.50;99.90;;;;;;4962508;28;20053;-70
2022/05/17 10:07:29;;;;;;;9.02;3.17;;;22.70;99.90;;;;;;4978286;28;20141;-70
2022/05/17 10:09:55;;;;;;;8.00;3.28;;;22.80;99.90;;;;;;4991284;28;20505;-70
2022/05/17 10:12:37;;;;;;;8.90;3.80;;;22.90;99.90;;;;;;4995319;28;20042;-71
2022/05/17 10:15:10;;;;;;;8.75;2.90;;;22.90;99.90;;;;;;4961903;28;20042;-70
2022/05/17 10:18:00;;;;;;;10.00;3.28;;;23.20;99.90;;;;;;4978607;28;20042;-71
2022/05/17 10:20:46;;;;;;;8.23;3.50;;;23.50;99.90;;;;;;4997714;28;20390;-72
2022/05/17 10:23:46;;;;;;;8.25;3.40;;;23.10;99.90;;;;;;4980222;28;20509;-69
2022/05/17 10:26:18;;;;;;;8.20;2.90;;;23.20;99.90;;;;;;4976813;28;20478;-70
2022/05/17 10:29:02;;;;;;;11.27;3.40;;;23.30;99.90;;;;;;4961873;28;20042;-70
2022/05/17 10:31:46;;;;;;;9.63;3.65;;;23.20;99.90;;;;;;4995524;28;20050;-72
2022/05/17 10:34:30;;;;;;;10.07;3.47;;;23.50;99.90;;;;;;4978016;28;20046;-70
2022/05/17 10:37:05;;;;;;;9.32;3.55;;;23.50;99.90;;;;;;4986967;28;20096;-70
2022/05/17 10:39:48;;;;;;;8.80;2.90;;;23.70;99.90;;;;;;4980384;28;20046;-71
2022/05/17 10:42:14;;;;;;;8.85;3.45;;;23.90;99.90;;;;;;4978775;28;20061;-70
2022/05/17 10:44:45;;;;;;;11.40;3.10;;;24.00;99.90;;;;;;4988595;28;20152;-70
2022/05/17 10:47:13;;;;;;;;;;;23.90;99.90;;;;;;4991023;28;20402;-70
2022/05/17 10:50:13;;;;;;;8.93;3.47;;;24.10;99.90;;;;;;4977674;28;20008;-70
2022/05/17 10:53:01;;;;;;;9.73;3.05;;;23.90;99.90;;;;;;4995753;28;20048;-69
2022/05/17 10:56:04;;;;;;;6.00;2.67;;;23.90;99.90;;;;;;4995640;28;20479;-70
2022/05/17 10:58:54;;;;;;;6.22;2.78;;;24.30;99.90;;;;;;4996495;28;20048;-72
2022/05/17 11:01:45;;;;;;;9.15;3.35;;;24.80;99.90;;;;;;4996265;28;20063;-70
2022/05/17 11:04:36;;;;;;;8.02;3.47;;;24.70;99.90;;;;;;5012711;28;20395;-71
2022/05/17 11:07:25;;;;;;;7.80;3.00;;;24.40;99.90;;;;;;4996162;28;20045;-69
2022/05/17 11:10:33;;;;;;;8.85;3.20;;;24.60;99.90;;;;;;4995722;28;20050;-72
2022/05/17 11:13:09;;;;;;;7.95;2.70;;;25.10;99.90;;;;;;4959226;28;20306;-72
2022/05/17 11:15:40;;;;;;;6.88;2.95;;;24.70;99.90;;;;;;4975317;28;20093;-70
2022/05/17 11:18:21;;;;;;;13.50;4.38;;;25.00;99.90;;;;;;4981081;28;20058;-71
2022/05/17 11:20:56;;;;;;;10.25;3.80;;;25.10;99.90;;;;;;4996488;28;20121;-70
2022/05/17 11:23:47;;;;;;;8.32;4.05;;;25.50;99.90;;;;;;4979687;28;20037;-70
2022/05/17 11:26:36;;;;;;;;;;;26.10;96.00;;;;;;4977368;28;20415;-70
2022/05/17 11:29:34;;;;;;;8.75;3.10;;;26.00;81.20;;;;;;4983550;28;19940;-69
2022/05/17 11:32:22;;;;;;;9.57;2.72;;;25.80;96.00;;;;;;5013455;28;20368;-70
2022/05/17 11:34:49;;;;;;;6.63;3.13;;;26.30;99.90;;;;;;4995675;28;20398;-70
2022/05/17 11:37:33;;;;;;;9.75;2.85;;;26.40;99.90;;;;;;4979915;28;20042;-70
2022/05/17 11:40:04;;;;;;;9.60;3.22;;;26.20;84.70;;;;;;5013117;28;20050;-70
2022/05/17 11:42:34;;;;;;;9.48;3.28;;;26.40;98.90;;;;;;4994885;28;20125;-70
2022/05/17 11:45:21;;;;;;;6.63;3.07;;;26.60;97.20;;;;;;4985990;28;20061;-71
2022/05/17 11:47:57;;;;;;;8.27;2.95;;;26.70;72.70;;;;;;4996260;28;20289;-69
2022/05/17 11:50:29;;;;;;;6.80;3.10;;;27.20;77.30;;;;;;4981555;28;20046;-70
2022/05/17 11:53:16;;;;;;;11.63;3.60;;;26.60;87.40;;;;;;4976180;28;20050;-70
2022/05/17 11:56:14;;;;;;;10.13;3.50;;;26.80;91.20;;;;;;4965053;28;20169;-70
2022/05/17 11:58:42;;;;;;;7.95;3.40;;;26.30;76.70;;;;;;4977093;28;20038;-70
2022/05/17 12:01:30;;;;;;;8.75;3.15;;;26.30;82.60;;;;;;4976451;28;20038;-71
2022/05/17 12:04:06;;;;;;;7.07;3.15;;;26.40;68.30;;;;;;4976696;28;20046;-70
2022/05/17 12:06:51;;;;;;;6.70;2.40;;;26.20;84.70;;;;;;4976369;28;20046;-70
2022/05/17 12:09:23;;;;;;;5.85;2.65;;;26.50;69.50;;;;;;4993420;28;20042;-70
2022/05/17 12:11:52;;;;;;;7.32;2.75;;;26.60;80.00;;;;;;4976044;28;20054;-71
2022/05/17 12:14:20;;;;;;;6.75;2.95;;;26.60;67.70;;;;;;4976398;28;20042;-70
2022/05/17 12:17:15;;;;;;;9.30;2.83;;;27.20;77.50;;;;;;4976561;28;20047;-71
2022/05/17 12:20:25;;;;;;;8.85;2.53;;;27.00;68.50;;;;;;4976712;28;20042;-70
2022/05/17 12:23:05;;;;;;;9.90;2.83;;;27.80;61.60;;;;;;4916848;29;20070;-72
2022/05/17 12:25:49;;;;;;;7.40;2.60;;;27.60;70.60;;;;;;4953362;28;20294;-70
2022/05/17 12:28:22;;;;;;;9.55;2.63;;;28.00;68.30;;;;;;4976013;28;20053;-70
2022/05/17 12:30:54;;;;;;;8.38;3.17;;;27.90;70.50;;;;;;4960398;28;20061;-70
2022/05/17 12:33:24;;;;;;;8.88;2.42;;;28.00;78.60;;;;;;4982979;28;20049;-70
2022/05/17 12:35:52;;;;;;;4.82;2.13;;;28.10;68.40;;;;;;4993183;28;20080;-70
2022/05/17 12:44:07;;;;;;;7.25;2.80;;;28.50;69.10;;;;;;5005811;28;20601;-69
2022/05/17 12:46:37;;;;;;;8.57;3.10;;;29.00;66.20;;;;;;4975022;28;20054;-71
2022/05/17 12:49:25;;;;;;;6.82;2.85;;;30.10;63.00;;;;;;4992206;28;20046;-71
2022/05/17 12:51:55;;;;;;;6.22;2.80;;;30.40;55.60;;;;;;4974980;28;20097;-71
2022/05/17 12:54:25;;;;;;;8.13;2.70;;;31.00;61.40;;;;;;4975227;28;20380;-70
2022/05/17 12:56:51;;;;;;;7.45;2.47;;;31.20;60.30;;;;;;4975954;28;20042;-70
2022/05/17 12:59:28;;;;;;;9.15;2.15;;;31.30;59.30;;;;;;4975913;28;20053;-68
2022/05/17 13:01:58;;;;;;;5.57;1.70;;;31.70;55.80;;;;;;4987742;28;20386;-69
2022/05/17 13:04:33;;;;;;;5.93;1.88;;;32.10;54.60;;;;;;4968931;28;20042;-68
2022/05/17 13:07:13;;;;;;;8.90;4.55;;;31.60;50.90;;;;;;4975084;28;20482;-68
2022/05/17 13:10:05;;;;;;;9.02;5.53;;;32.00;52.80;;;;;;4974932;28;20382;-68
2022/05/17 13:12:40;;;;;;;11.90;5.63;;;32.00;52.50;;;;;;5001410;28;20084;-68
2022/05/17 13:15:08;;;;;;;12.55;6.32;;;31.70;56.00;;;;;;4994112;28;20092;-67